Time;durP1;ratioP1;P1;durP2;ratioP2;P2;SDS_P1;SDS_P2;PMS_P1;PMS_P2;Temp;Humidity;BMP_temperature;BMP_pressure;BME280_temperature;BME280_humidity;BME280_pressure;Samples;Min_cycle;Max_cycle;Signal;HPM_P1;HPM_P2
2021/09/02 00:02:06;;;;;;;0.50;0.40;;;11.30;99.90;;;;;;4975710;28;20208;-80
2021/09/02 00:04:34;;;;;;;0.50;0.40;;;11.30;99.90;;;;;;4975692;28;20199;-80
2021/09/02 00:07:00;;;;;;;0.50;0.40;;;11.30;99.90;;;;;;4978209;28;20202;-79
2021/09/02 00:09:29;;;;;;;0.50;0.40;;;11.30;99.90;;;;;;4979787;28;20228;-81
2021/09/02 00:11:55;;;;;;;0.50;0.40;;;11.30;99.90;;;;;;4980187;28;20204;-80
2021/09/02 00:14:22;;;;;;;0.50;0.40;;;11.30;99.90;;;;;;4979705;28;20214;-79
2021/09/02 00:16:49;;;;;;;0.50;0.40;;;11.20;99.90;;;;;;4979532;28;20570;-80
2021/09/02 00:19:17;;;;;;;0.50;0.40;;;11.20;99.90;;;;;;4979918;28;20739;-80
2021/09/02 00:21:44;;;;;;;0.50;0.40;;;11.20;99.90;;;;;;4979190;28;20209;-79
2021/09/02 00:24:11;;;;;;;0.50;0.40;;;11.20;99.90;;;;;;4980073;28;20569;-81
2021/09/02 00:26:42;;;;;;;0.50;0.40;;;11.20;99.90;;;;;;4979482;28;20209;-81
2021/09/02 00:29:09;;;;;;;0.50;0.40;;;11.20;99.90;;;;;;4978826;28;20239;-81
2021/09/02 00:31:36;;;;;;;0.50;0.40;;;11.20;99.90;;;;;;4978938;28;20204;-81
2021/09/02 00:34:02;;;;;;;0.50;0.35;;;11.20;99.90;;;;;;4979708;28;20200;-81
2021/09/02 00:36:29;;;;;;;0.50;0.40;;;11.20;99.90;;;;;;4979897;28;20228;-81
2021/09/02 00:38:56;;;;;;;0.50;0.40;;;11.20;99.90;;;;;;4979428;28;20686;-81
2021/09/02 00:41:23;;;;;;;0.50;0.40;;;11.20;99.90;;;;;;4979138;28;20207;-82
2021/09/02 00:43:51;;;;;;;0.50;0.40;;;11.20;99.90;;;;;;4980091;28;20204;-81
2021/09/02 00:46:19;;;;;;;0.50;0.40;;;11.10;99.90;;;;;;4979777;28;20203;-81
2021/09/02 00:48:47;;;;;;;0.50;0.40;;;11.10;99.90;;;;;;4979364;28;20372;-81
2021/09/02 00:51:16;;;;;;;0.50;0.40;;;11.10;99.90;;;;;;4979561;28;20208;-81
2021/09/02 00:53:43;;;;;;;0.50;0.40;;;11.10;99.90;;;;;;4979691;28;20211;-82
2021/09/02 00:56:10;;;;;;;0.50;0.35;;;11.10;99.90;;;;;;4979251;28;20208;-81
2021/09/02 00:58:37;;;;;;;0.50;0.40;;;11.10;99.90;;;;;;4979410;28;20196;-82
2021/09/02 01:01:05;;;;;;;0.50;0.40;;;11.10;99.90;;;;;;4979269;28;20228;-82
2021/09/02 01:03:32;;;;;;;0.50;0.40;;;11.10;99.90;;;;;;4979242;28;20200;-82
2021/09/02 01:05:59;;;;;;;0.50;0.40;;;11.00;99.90;;;;;;4978983;28;20211;-81
2021/09/02 01:08:26;;;;;;;0.50;0.40;;;11.00;99.90;;;;;;4979662;28;20225;-81
2021/09/02 01:10:53;;;;;;;0.50;0.40;;;10.90;99.90;;;;;;4979286;28;20224;-81
2021/09/02 01:13:20;;;;;;;0.50;0.40;;;10.90;99.90;;;;;;4979092;28;20204;-82
2021/09/02 01:15:47;;;;;;;0.50;0.40;;;10.90;99.90;;;;;;4979106;28;20209;-82
2021/09/02 01:18:16;;;;;;;0.50;0.40;;;10.90;99.90;;;;;;4978555;28;20207;-81
2021/09/02 01:20:43;;;;;;;0.50;0.40;;;10.90;99.90;;;;;;4978574;28;20243;-79
2021/09/02 01:23:09;;;;;;;0.50;0.40;;;10.90;99.90;;;;;;4978816;28;20206;-82
2021/09/02 01:25:42;;;;;;;0.50;0.40;;;10.90;99.90;;;;;;4979152;28;20671;-80
2021/09/02 01:28:10;;;;;;;0.50;0.40;;;10.90;99.90;;;;;;4979106;28;20563;-81
2021/09/02 01:30:39;;;;;;;0.50;0.40;;;10.80;99.90;;;;;;4978686;28;20232;-82
2021/09/02 01:33:07;;;;;;;0.50;0.40;;;10.90;99.90;;;;;;4979183;28;20200;-80
2021/09/02 01:35:34;;;;;;;0.50;0.40;;;10.80;99.90;;;;;;4978985;28;20205;-81
2021/09/02 01:38:03;;;;;;;0.50;0.40;;;10.80;99.90;;;;;;4978791;28;20203;-82
2021/09/02 01:40:32;;;;;;;0.50;0.40;;;10.80;99.90;;;;;;4978844;28;20224;-82
2021/09/02 01:43:02;;;;;;;0.50;0.40;;;10.80;99.90;;;;;;4978571;28;20199;-81
2021/09/02 01:45:29;;;;;;;0.50;0.40;;;10.80;99.90;;;;;;4978948;28;20209;-82
2021/09/02 01:47:57;;;;;;;0.50;0.40;;;10.80;99.90;;;;;;4978533;28;20206;-82
2021/09/02 01:50:25;;;;;;;0.50;0.40;;;10.70;99.90;;;;;;4978119;28;20259;-82
2021/09/02 01:52:54;;;;;;;0.50;0.40;;;10.70;99.90;;;;;;4978854;28;20200;-81
2021/09/02 01:55:22;;;;;;;0.50;0.40;;;10.70;99.90;;;;;;4978942;28;20199;-82
2021/09/02 01:57:49;;;;;;;0.50;0.40;;;10.60;99.90;;;;;;4978608;28;20208;-82
2021/09/02 02:00:19;;;;;;;0.50;0.40;;;10.60;99.90;;;;;;4977891;28;20300;-82
2021/09/02 02:02:46;;;;;;;0.50;0.40;;;10.60;99.90;;;;;;4977793;28;20195;-82
2021/09/02 02:05:14;;;;;;;0.50;0.40;;;10.60;99.90;;;;;;4977429;28;20210;-81
2021/09/02 02:07:41;;;;;;;0.50;0.40;;;10.60;99.90;;;;;;4977337;28;20215;-81
2021/09/02 02:10:11;;;;;;;0.50;0.40;;;10.60;99.90;;;;;;4977336;28;20224;-79
2021/09/02 02:12:38;;;;;;;0.50;0.40;;;10.60;99.90;;;;;;4977454;28;20202;-81
2021/09/02 02:15:06;;;;;;;0.50;0.40;;;10.60;99.90;;;;;;4977920;28;20223;-81
2021/09/02 02:17:35;;;;;;;0.50;0.40;;;10.60;99.90;;;;;;4977295;28;20679;-82
2021/09/02 02:20:01;;;;;;;0.50;0.40;;;10.50;99.90;;;;;;4976499;28;20705;-81
2021/09/02 02:22:28;;;;;;;0.50;0.40;;;10.60;99.90;;;;;;4977856;28;20695;-81
2021/09/02 02:24:55;;;;;;;0.50;0.40;;;10.60;99.90;;;;;;4977412;28;20220;-81
2021/09/02 02:27:22;;;;;;;0.50;0.40;;;10.60;99.90;;;;;;4977059;28;20211;-82
2021/09/02 02:29:48;;;;;;;0.50;0.40;;;10.70;99.90;;;;;;4975977;28;20228;-81
2021/09/02 02:32:15;;;;;;;0.50;0.40;;;10.60;99.90;;;;;;4977116;28;20199;-81
2021/09/02 02:34:43;;;;;;;0.50;0.40;;;10.70;99.90;;;;;;4976793;28;20203;-82
2021/09/02 02:37:10;;;;;;;0.50;0.40;;;10.70;99.90;;;;;;4977334;28;20673;-82
2021/09/02 02:39:38;;;;;;;0.50;0.40;;;10.70;99.90;;;;;;4976420;28;20224;-82
2021/09/02 02:42:06;;;;;;;0.50;0.40;;;10.70;99.90;;;;;;4977154;28;20584;-80
2021/09/02 02:44:32;;;;;;;0.50;0.40;;;10.80;99.90;;;;;;4977180;28;20263;-81
2021/09/02 02:46:59;;;;;;;0.50;0.40;;;10.70;99.90;;;;;;4977106;28;20198;-81
2021/09/02 02:49:26;;;;;;;0.50;0.40;;;10.60;99.90;;;;;;4976903;28;20229;-80
2021/09/02 02:51:54;;;;;;;0.50;0.40;;;10.60;99.90;;;;;;4976103;28;20206;-80
2021/09/02 02:54:21;;;;;;;0.50;0.40;;;10.50;99.90;;;;;;4977120;28;20198;-81
2021/09/02 02:56:48;;;;;;;0.50;0.40;;;10.50;99.90;;;;;;4976722;28;20226;-81
2021/09/02 02:59:15;;;;;;;0.50;0.40;;;10.50;99.90;;;;;;4977266;28;20234;-80
2021/09/02 03:01:41;;;;;;;1.20;1.20;;;10.60;99.90;;;;;;4976411;28;20199;-80
2021/09/02 03:04:08;;;;;;;0.50;0.40;;;10.60;99.90;;;;;;4976681;28;20200;-81
2021/09/02 03:06:35;;;;;;;0.50;0.40;;;10.60;99.90;;;;;;4976414;28;20211;-81
2021/09/02 03:09:03;;;;;;;0.50;0.40;;;10.50;99.90;;;;;;4976669;28;20228;-80
2021/09/02 03:11:31;;;;;;;0.50;0.40;;;10.50;99.90;;;;;;4976129;28;20203;-81
2021/09/02 03:13:59;;;;;;;0.50;0.40;;;10.50;99.90;;;;;;4977175;28;20196;-81
2021/09/02 03:16:25;;;;;;;0.50;0.40;;;10.50;99.90;;;;;;4976824;28;20207;-81
2021/09/02 03:18:52;;;;;;;0.50;0.40;;;10.60;99.90;;;;;;4976659;28;20282;-80
2021/09/02 03:21:19;;;;;;;0.50;0.40;;;10.70;99.90;;;;;;4975949;28;20203;-81
2021/09/02 03:23:46;;;;;;;1.15;1.15;;;10.60;99.90;;;;;;4976929;28;20199;-79
2021/09/02 03:26:14;;;;;;;0.50;0.40;;;10.70;99.90;;;;;;4977456;28;20210;-80
2021/09/02 03:28:41;;;;;;;0.50;0.40;;;10.70;99.90;;;;;;4976706;28;20223;-79
2021/09/02 03:31:08;;;;;;;0.50;0.40;;;10.60;99.90;;;;;;4974959;28;20210;-81
2021/09/02 03:33:35;;;;;;;0.50;0.40;;;10.50;99.90;;;;;;4974993;28;20203;-80
2021/09/02 03:36:02;;;;;;;0.50;0.40;;;10.50;99.90;;;;;;4975512;28;20200;-80
2021/09/02 03:38:29;;;;;;;0.50;0.40;;;10.40;99.90;;;;;;4975078;28;20199;-81
2021/09/02 03:40:55;;;;;;;0.50;0.40;;;10.40;99.90;;;;;;4974428;28;20216;-79
2021/09/02 03:43:23;;;;;;;0.50;0.40;;;10.40;99.90;;;;;;4969967;28;20199;-80
2021/09/02 03:45:50;;;;;;;0.50;0.40;;;10.40;99.90;;;;;;4986069;28;20200;-80
2021/09/02 03:48:17;;;;;;;0.50;0.40;;;10.40;99.90;;;;;;4978068;28;20202;-80
2021/09/02 03:50:44;;;;;;;0.50;0.40;;;10.30;99.90;;;;;;4977919;28;20219;-80
2021/09/02 03:53:11;;;;;;;0.50;0.40;;;10.40;99.90;;;;;;4978406;28;20195;-80
2021/09/02 03:55:37;;;;;;;0.50;0.40;;;10.40;99.90;;;;;;4978824;28;20198;-80
2021/09/02 03:58:06;;;;;;;0.50;0.40;;;10.40;99.90;;;;;;4978544;28;20215;-79
2021/09/02 04:00:35;;;;;;;0.50;0.40;;;10.50;99.90;;;;;;4966140;28;20207;-80
2021/09/02 04:03:02;;;;;;;0.50;0.40;;;10.50;99.90;;;;;;4960875;29;20222;-81
2021/09/02 04:05:29;;;;;;;2.35;2.25;;;10.50;99.90;;;;;;4961388;29;20226;-81
2021/09/02 04:07:56;;;;;;;0.50;0.40;;;10.40;99.90;;;;;;4960714;29;20201;-79
2021/09/02 04:10:23;;;;;;;0.50;0.40;;;10.50;99.90;;;;;;4959730;29;20231;-80
2021/09/02 04:12:49;;;;;;;0.50;0.40;;;10.50;99.90;;;;;;4958945;29;20207;-80
2021/09/02 04:15:16;;;;;;;0.50;0.40;;;10.50;99.90;;;;;;4959360;29;20199;-80
2021/09/02 04:17:44;;;;;;;0.50;0.40;;;10.40;99.90;;;;;;4959054;29;20207;-80
2021/09/02 04:20:12;;;;;;;0.50;0.40;;;10.40;99.90;;;;;;4958327;28;20260;-81
2021/09/02 04:22:39;;;;;;;0.50;0.40;;;10.30;99.90;;;;;;4960798;29;20238;-81
2021/09/02 04:25:06;;;;;;;0.50;0.40;;;10.30;99.90;;;;;;4963129;29;20203;-79
2021/09/02 04:27:33;;;;;;;0.50;0.40;;;10.30;99.90;;;;;;4960619;29;20200;-80
2021/09/02 04:30:00;;;;;;;0.50;0.40;;;10.30;99.90;;;;;;4959092;29;20262;-81
2021/09/02 04:32:26;;;;;;;0.50;0.40;;;10.30;99.90;;;;;;4959325;29;20207;-81
2021/09/02 04:34:54;;;;;;;0.50;0.40;;;10.20;99.90;;;;;;4960616;29;20217;-81
2021/09/02 04:37:21;;;;;;;0.50;0.40;;;10.20;99.90;;;;;;4976195;28;20664;-81
2021/09/02 04:39:48;;;;;;;0.50;0.40;;;10.20;99.90;;;;;;4980227;28;20218;-81
2021/09/02 04:42:15;;;;;;;0.50;0.40;;;10.20;99.90;;;;;;4982577;28;20212;-81
2021/09/02 04:44:41;;;;;;;0.50;0.40;;;10.10;99.90;;;;;;4988583;28;20233;-81
2021/09/02 04:47:08;;;;;;;0.50;0.40;;;10.10;99.90;;;;;;4999660;28;20194;-81
2021/09/02 04:49:35;;;;;;;0.50;0.40;;;10.10;99.90;;;;;;4982373;28;20237;-82
2021/09/02 04:52:03;;;;;;;0.50;0.40;;;10.10;99.90;;;;;;4982047;28;20202;-80
2021/09/02 04:54:30;;;;;;;0.50;0.40;;;10.10;99.90;;;;;;4982815;28;20206;-81
2021/09/02 04:56:56;;;;;;;0.50;0.40;;;10.10;99.90;;;;;;4983316;28;20561;-81
2021/09/02 04:59:23;;;;;;;0.50;0.40;;;10.10;99.90;;;;;;4983040;28;20217;-81
2021/09/02 05:01:50;;;;;;;0.50;0.40;;;10.10;99.90;;;;;;4962269;29;20554;-81
2021/09/02 05:04:17;;;;;;;0.50;0.40;;;10.10;99.90;;;;;;4962256;29;20606;-83
2021/09/02 05:06:43;;;;;;;1.23;1.13;;;10.20;99.90;;;;;;4962605;29;20198;-78
2021/09/02 05:09:11;;;;;;;0.50;0.40;;;10.20;99.90;;;;;;4963556;29;20235;-81
2021/09/02 05:11:38;;;;;;;0.50;0.40;;;10.20;99.90;;;;;;4962818;29;20208;-81
2021/09/02 05:14:05;;;;;;;0.50;0.40;;;10.30;99.90;;;;;;4963071;29;20250;-83
2021/09/02 05:16:32;;;;;;;0.50;0.40;;;10.30;99.90;;;;;;4963732;29;20195;-82
2021/09/02 05:18:58;;;;;;;0.50;0.40;;;10.40;99.90;;;;;;4963405;29;20204;-83
2021/09/02 05:21:25;;;;;;;0.50;0.40;;;10.40;99.90;;;;;;4975070;28;20217;-82
2021/09/02 05:23:52;;;;;;;0.50;0.40;;;10.50;99.90;;;;;;4982199;28;20205;-83
2021/09/02 05:26:20;;;;;;;0.50;0.40;;;10.50;99.90;;;;;;4982165;28;20225;-81
2021/09/02 05:28:47;;;;;;;0.50;0.40;;;10.60;99.90;;;;;;4982018;28;20203;-82
2021/09/02 05:31:14;;;;;;;0.50;0.40;;;10.70;99.90;;;;;;4982207;28;20215;-82
2021/09/02 05:33:41;;;;;;;0.50;0.30;;;10.80;99.90;;;;;;4982386;28;20198;-83
2021/09/02 05:36:07;;;;;;;0.50;0.40;;;11.00;99.90;;;;;;4987521;28;20193;-82
2021/09/02 05:38:34;;;;;;;0.50;0.40;;;11.20;99.90;;;;;;5001898;28;20203;-82
2021/09/02 05:41:01;;;;;;;0.50;0.40;;;11.70;99.90;;;;;;5001210;28;20211;-83
2021/09/02 05:43:29;;;;;;;3.80;1.50;;;11.90;99.90;;;;;;5001378;28;20199;-82
2021/09/02 05:45:56;;;;;;;0.50;0.40;;;12.00;99.90;;;;;;5001074;28;20232;-82
2021/09/02 05:48:23;;;;;;;0.50;0.40;;;12.20;99.90;;;;;;5000793;28;20196;-82
2021/09/02 05:50:52;;;;;;;0.50;0.40;;;12.40;99.90;;;;;;5000428;28;20228;-82
2021/09/02 05:53:18;;;;;;;2.37;1.73;;;12.70;99.90;;;;;;5000930;28;20197;-84
2021/09/02 05:55:45;;;;;;;0.50;0.40;;;13.20;99.90;;;;;;5000093;28;20454;-83
2021/09/02 05:58:12;;;;;;;0.50;0.40;;;14.20;99.90;;;;;;5000098;28;20452;-81
2021/09/02 06:00:41;;;;;;;0.50;0.40;;;15.10;99.90;;;;;;4993365;28;20812;-83
2021/09/02 06:03:07;;;;;;;0.50;0.30;;;16.10;99.90;;;;;;4999679;28;20440;-82
2021/09/02 06:05:34;;;;;;;0.50;0.30;;;17.00;99.90;;;;;;5000081;28;20441;-83
2021/09/02 06:08:01;;;;;;;0.50;0.37;;;17.90;99.90;;;;;;4998848;28;20448;-80
2021/09/02 06:10:28;;;;;;;0.50;0.30;;;18.90;99.90;;;;;;4999227;28;20480;-82
2021/09/02 06:12:56;;;;;;;0.50;0.40;;;19.60;99.90;;;;;;5000245;28;20442;-83
2021/09/02 06:15:23;;;;;;;0.50;0.40;;;20.20;99.90;;;;;;5000806;28;20453;-82
2021/09/02 06:17:51;;;;;;;0.50;0.30;;;20.80;99.90;;;;;;5001033;28;20456;-81
2021/09/02 06:20:18;;;;;;;0.50;0.30;;;21.40;99.90;;;;;;4993381;28;20470;-81
2021/09/02 06:22:45;;;;;;;0.50;0.50;;;22.00;99.90;;;;;;4980562;28;20501;-82
2021/09/02 06:25:12;;;;;;;0.50;0.30;;;22.70;99.90;;;;;;4981566;28;20462;-81
2021/09/02 06:27:39;;;;;;;0.50;0.30;;;23.50;99.90;;;;;;4980893;28;20456;-81
2021/09/02 06:30:07;;;;;;;0.93;0.93;;;24.40;99.90;;;;;;4980096;28;20482;-81
2021/09/02 06:32:34;;;;;;;0.50;0.40;;;24.90;99.90;;;;;;4980516;28;20448;-84
2021/09/02 06:35:02;;;;;;;0.50;0.30;;;25.60;99.90;;;;;;4981282;28;20814;-83
2021/09/02 06:37:29;;;;;;;0.50;0.40;;;26.20;99.90;;;;;;4981108;28;20972;-83
2021/09/02 06:39:55;;;;;;;0.50;0.40;;;26.80;97.60;;;;;;4980917;28;20573;-83
2021/09/02 06:42:22;;;;;;;0.50;0.30;;;27.20;97.60;;;;;;4980199;28;20454;-82
2021/09/02 06:44:49;;;;;;;0.50;0.30;;;27.80;95.50;;;;;;4982353;28;20485;-81
2021/09/02 06:47:16;;;;;;;0.50;0.30;;;28.40;91.90;;;;;;4982315;28;20456;-82
2021/09/02 06:49:42;;;;;;;0.50;0.30;;;28.60;88.80;;;;;;4981999;28;20491;-81
2021/09/02 06:52:10;;;;;;;0.50;0.30;;;29.00;86.50;;;;;;4981590;28;20445;-82
2021/09/02 06:54:37;;;;;;;0.50;0.30;;;29.20;80.20;;;;;;4980045;28;20448;-81
2021/09/02 06:57:04;;;;;;;0.50;0.30;;;28.30;80.20;;;;;;4981039;28;20444;-82
2021/09/02 06:59:31;;;;;;;0.50;0.30;;;28.30;81.00;;;;;;4980670;28;20466;-81
2021/09/02 07:01:58;;;;;;;1.23;0.60;;;28.60;79.50;;;;;;4979491;28;20444;-81
2021/09/02 07:04:24;;;;;;;0.50;0.30;;;28.00;80.00;;;;;;4979825;28;20454;-81
2021/09/02 07:06:51;;;;;;;1.53;1.43;;;28.00;80.00;;;;;;4980987;28;20464;-83
2021/09/02 07:09:19;;;;;;;0.70;0.60;;;27.60;80.50;;;;;;4982448;28;20474;-83
2021/09/02 07:11:46;;;;;;;0.50;0.40;;;27.40;81.80;;;;;;4980738;28;20497;-83
2021/09/02 07:14:13;;;;;;;0.50;0.30;;;27.60;82.70;;;;;;4980373;28;20448;-81
2021/09/02 07:16:39;;;;;;;0.50;0.40;;;28.10;84.30;;;;;;4979425;28;20810;-81
2021/09/02 07:19:06;;;;;;;0.60;0.53;;;28.70;80.20;;;;;;4978805;28;20472;-83
2021/09/02 07:21:33;;;;;;;0.50;0.30;;;28.70;77.60;;;;;;4977232;28;20448;-81
2021/09/02 07:24:00;;;;;;;0.50;0.30;;;28.60;77.60;;;;;;4979504;28;20950;-84
2021/09/02 07:26:28;;;;;;;0.50;0.30;;;28.50;76.60;;;;;;4978804;28;20456;-83
2021/09/02 07:28:55;;;;;;;0.50;0.30;;;28.60;76.90;;;;;;4977374;28;20441;-80
2021/09/02 07:31:22;;;;;;;0.50;0.30;;;29.00;76.40;;;;;;4981918;28;20468;-81
2021/09/02 07:33:49;;;;;;;0.50;0.40;;;29.50;79.20;;;;;;4991129;28;20439;-81
2021/09/02 07:36:15;;;;;;;1.33;1.23;;;30.00;75.50;;;;;;4999415;28;20450;-84
2021/09/02 07:38:42;;;;;;;0.50;0.30;;;30.60;76.90;;;;;;4998145;28;20520;-81
2021/09/02 07:41:09;;;;;;;0.50;0.30;;;31.50;72.30;;;;;;4997525;28;20443;-81
2021/09/02 07:43:37;;;;;;;0.50;0.30;;;32.30;69.70;;;;;;4999053;28;20444;-81
2021/09/02 07:46:04;;;;;;;0.50;0.30;;;32.40;67.50;;;;;;4997851;28;20448;-80
2021/09/02 07:48:31;;;;;;;0.50;0.30;;;32.90;65.80;;;;;;4999342;28;20446;-81
2021/09/02 07:50:57;;;;;;;0.50;0.30;;;33.20;63.90;;;;;;4997872;28;20476;-82
2021/09/02 07:53:24;;;;;;;0.47;0.30;;;33.60;63.80;;;;;;4999474;28;20451;-82
2021/09/02 07:55:51;;;;;;;0.50;0.30;;;33.90;60.50;;;;;;4999382;28;20535;-81
2021/09/02 07:58:17;;;;;;;0.50;0.30;;;33.90;59.90;;;;;;4999777;28;20438;-81
2021/09/02 08:00:46;;;;;;;0.50;0.30;;;33.50;59.60;;;;;;4998174;28;21015;-80
2021/09/02 08:03:13;;;;;;;0.40;0.30;;;33.30;61.00;;;;;;4998259;28;20480;-80
2021/09/02 08:05:40;;;;;;;0.50;0.30;;;33.50;64.00;;;;;;4998593;28;20453;-81
2021/09/02 08:08:08;;;;;;;1.23;1.13;;;33.70;60.60;;;;;;4999139;28;20439;-81
2021/09/02 08:10:35;;;;;;;0.40;0.30;;;33.90;60.30;;;;;;5000297;28;20489;-81
2021/09/02 08:13:01;;;;;;;0.50;0.30;;;33.70;59.40;;;;;;5005785;28;20445;-81
2021/09/02 08:15:28;;;;;;;0.50;0.30;;;33.20;60.60;;;;;;4999062;28;20448;-81
2021/09/02 08:17:59;;;;;;;0.50;0.30;;;32.20;59.80;;;;;;5000115;28;20444;-81
2021/09/02 08:20:27;;;;;;;0.50;0.30;;;30.70;63.00;;;;;;4992341;28;20837;-80
2021/09/02 08:22:54;;;;;;;0.50;0.30;;;29.90;65.40;;;;;;4987780;28;20960;-81
2021/09/02 08:25:20;;;;;;;0.50;0.30;;;29.40;69.10;;;;;;4979711;28;20450;-81
2021/09/02 08:27:48;;;;;;;0.50;0.30;;;30.10;69.90;;;;;;4979960;28;20445;-80
2021/09/02 08:30:16;;;;;;;0.70;0.70;;;29.90;67.50;;;;;;4982419;28;20477;-77
2021/09/02 08:32:47;;;;;;;0.50;0.30;;;30.20;69.70;;;;;;4982879;28;20444;-81
2021/09/02 08:35:16;;;;;;;0.50;0.40;;;31.00;70.60;;;;;;4983413;28;20569;-81
2021/09/02 08:37:43;;;;;;;0.50;0.30;;;31.50;66.20;;;;;;4984286;28;20466;-82
2021/09/02 08:40:10;;;;;;;0.50;0.30;;;32.50;66.40;;;;;;4983163;28;20834;-79
2021/09/02 08:42:38;;;;;;;0.50;0.30;;;33.40;62.20;;;;;;4982144;28;20953;-81
2021/09/02 08:45:06;;;;;;;1.90;1.60;;;33.40;60.40;;;;;;4982852;28;20439;-82
2021/09/02 08:47:36;;;;;;;0.50;0.30;;;33.50;60.20;;;;;;4983740;28;20448;-80
2021/09/02 08:50:03;;;;;;;0.50;0.30;;;34.10;62.30;;;;;;4982974;28;20559;-82
2021/09/02 08:52:31;;;;;;;3.33;2.73;;;35.10;59.10;;;;;;4981458;28;20454;-81
2021/09/02 08:54:59;;;;;;;0.43;0.30;;;35.40;58.90;;;;;;4983011;28;20475;-82
2021/09/02 08:57:25;;;;;;;0.47;0.30;;;35.50;58.60;;;;;;4983149;28;20478;-81
2021/09/02 08:59:52;;;;;;;0.87;0.87;;;36.30;58.00;;;;;;4983472;28;20464;-82
2021/09/02 09:02:23;;;;;;;0.40;0.30;;;36.20;55.70;;;;;;4990241;28;20779;-81
2021/09/02 09:05:00;;;;;;;0.40;0.30;;;35.90;55.80;;;;;;4999784;28;20437;-82
2021/09/02 09:07:33;;;;;;;0.40;0.30;;;35.80;55.80;;;;;;5002650;28;20502;-81
2021/09/02 09:10:00;;;;;;;0.40;0.30;;;35.20;56.50;;;;;;5001801;28;20459;-82
2021/09/02 09:12:35;;;;;;;0.40;0.30;;;35.50;58.60;;;;;;5001062;28;20443;-81
2021/09/02 09:15:03;;;;;;;5.23;1.47;;;35.40;55.50;;;;;;5002968;28;20446;-82
2021/09/02 09:17:30;;;;;;;0.50;0.30;;;35.10;55.90;;;;;;5002218;28;20453;-82
2021/09/02 09:19:57;;;;;;;0.77;0.77;;;34.10;57.20;;;;;;4997999;28;20458;-83
2021/09/02 09:22:26;;;;;;;0.50;0.30;;;34.10;58.20;;;;;;4983190;28;20430;-80
2021/09/02 09:24:55;;;;;;;0.50;0.30;;;33.90;57.60;;;;;;4982412;28;20449;-80
2021/09/02 09:27:24;;;;;;;0.40;0.30;;;33.90;58.90;;;;;;4983493;28;20493;-81
2021/09/02 09:30:13;;;;;;;0.50;0.30;;;34.50;58.00;;;;;;4983340;28;21035;-81
2021/09/02 09:32:42;;;;;;;3.33;1.13;;;34.10;58.70;;;;;;4981923;28;20489;-82
2021/09/02 09:35:12;;;;;;;0.40;0.30;;;34.50;58.50;;;;;;4982159;28;20443;-81
2021/09/02 09:37:39;;;;;;;0.40;0.30;;;34.80;57.80;;;;;;4982826;28;20950;-81
2021/09/02 09:40:22;;;;;;;0.40;0.30;;;34.70;56.10;;;;;;4981616;28;20508;-81
2021/09/02 09:43:00;;;;;;;0.43;0.40;;;34.70;57.00;;;;;;4982606;28;20426;-82
2021/09/02 09:45:38;;;;;;;0.40;0.30;;;34.70;56.50;;;;;;4982201;28;20440;-81
2021/09/02 09:48:15;;;;;;;0.50;0.30;;;34.70;58.50;;;;;;4982410;28;20450;-82
2021/09/02 09:50:42;;;;;;;0.40;0.30;;;34.90;57.70;;;;;;4981526;28;20503;-81
2021/09/02 09:53:24;;;;;;;0.40;0.30;;;35.20;56.50;;;;;;4982184;28;20439;-81
2021/09/02 09:55:54;;;;;;;0.40;0.30;;;35.50;57.30;;;;;;4982413;28;20446;-82
2021/09/02 09:58:22;;;;;;;0.80;0.70;;;36.00;55.60;;;;;;4982313;28;20450;-81
2021/09/02 10:00:50;;;;;;;0.40;0.30;;;36.00;56.90;;;;;;4981550;28;20470;-79
2021/09/02 10:03:17;;;;;;;0.40;0.30;;;36.00;55.60;;;;;;4982330;28;20448;-82
2021/09/02 10:05:45;;;;;;;0.47;0.37;;;36.30;56.20;;;;;;4989455;28;20457;-82
2021/09/02 10:08:12;;;;;;;0.40;0.30;;;36.70;54.60;;;;;;4989195;28;20440;-81
2021/09/02 10:10:38;;;;;;;0.40;0.40;;;36.40;55.10;;;;;;4981663;28;20481;-81
2021/09/02 10:13:07;;;;;;;0.40;0.30;;;35.60;54.70;;;;;;4983701;28;20449;-82
2021/09/02 10:15:34;;;;;;;4.03;3.30;;;35.80;56.10;;;;;;4982197;28;20442;-82
2021/09/02 10:18:02;;;;;;;0.40;0.40;;;36.00;56.80;;;;;;4981093;28;20446;-81
2021/09/02 10:20:33;;;;;;;0.40;0.30;;;36.40;56.40;;;;;;4983266;28;20465;-81
2021/09/02 10:23:02;;;;;;;0.40;0.30;;;36.30;53.80;;;;;;5000358;28;20438;-83
2021/09/02 10:25:37;;;;;;;0.40;0.30;;;35.60;55.60;;;;;;5000973;28;20450;-82
2021/09/02 10:28:08;;;;;;;0.40;0.30;;;35.70;55.40;;;;;;5000599;28;20443;-82
2021/09/02 10:30:41;;;;;;;0.40;0.30;;;36.00;55.20;;;;;;5000372;28;20459;-81
2021/09/02 10:33:30;;;;;;;0.40;0.30;;;35.50;55.10;;;;;;5000979;28;20455;-82
2021/09/02 10:35:58;;;;;;;0.50;0.47;;;36.20;56.30;;;;;;5001328;28;20970;-82
2021/09/02 10:38:37;;;;;;;0.40;0.30;;;37.10;54.30;;;;;;5000407;28;20447;-82
2021/09/02 10:41:04;;;;;;;0.40;0.30;;;36.30;53.40;;;;;;4999263;28;20474;-81
2021/09/02 10:43:51;;;;;;;0.50;0.40;;;35.60;55.30;;;;;;5000126;28;20437;-82
2021/09/02 10:46:31;;;;;;;0.40;0.30;;;36.10;55.90;;;;;;4999841;28;20441;-82
2021/09/02 10:49:14;;;;;;;0.40;0.30;;;36.20;54.40;;;;;;4999211;28;20428;-79
2021/09/02 10:51:43;;;;;;;0.40;0.40;;;35.50;54.70;;;;;;4999659;28;20481;-81
2021/09/02 10:54:11;;;;;;;0.40;0.30;;;35.50;54.30;;;;;;5000517;28;20457;-82
2021/09/02 10:57:05;;;;;;;13.43;3.00;;;36.00;57.70;;;;;;5001706;28;20450;-83
2021/09/02 10:59:42;;;;;;;0.47;0.37;;;36.50;54.70;;;;;;4999693;28;20475;-82
2021/09/02 11:02:10;;;;;;;0.40;0.30;;;37.00;56.00;;;;;;5001471;28;20443;-82
2021/09/02 11:04:38;;;;;;;0.40;0.30;;;37.10;53.20;;;;;;5002296;28;20449;-82
2021/09/02 11:07:05;;;;;;;0.40;0.30;;;37.10;52.40;;;;;;5000166;28;20446;-82
2021/09/02 11:09:34;;;;;;;0.40;0.40;;;37.10;54.10;;;;;;5001015;28;20473;-82
2021/09/02 11:12:05;;;;;;;0.40;0.30;;;37.60;54.60;;;;;;4999633;28;20567;-81
2021/09/02 11:14:32;;;;;;;0.40;0.30;;;38.10;53.90;;;;;;4999596;28;20452;-82
2021/09/02 11:17:06;;;;;;;0.40;0.30;;;38.50;51.80;;;;;;4998841;28;20445;-82
2021/09/02 11:19:34;;;;;;;0.43;0.30;;;37.00;52.20;;;;;;4991106;28;20492;-83
2021/09/02 11:22:08;;;;;;;0.50;0.30;;;35.20;53.60;;;;;;4979438;28;20444;-82
2021/09/02 11:24:40;;;;;;;0.50;0.30;;;33.70;57.00;;;;;;4980933;28;20449;-82
2021/09/02 11:27:07;;;;;;;0.77;0.77;;;33.70;59.90;;;;;;4981531;28;20444;-82
2021/09/02 11:29:34;;;;;;;0.50;0.40;;;34.20;58.60;;;;;;4981733;28;20468;-82
2021/09/02 11:32:04;;;;;;;0.50;0.30;;;33.60;56.50;;;;;;4980865;28;20480;-81
2021/09/02 11:34:31;;;;;;;0.70;0.40;;;33.00;59.00;;;;;;4980649;28;20451;-83
2021/09/02 11:36:58;;;;;;;0.47;0.30;;;32.60;59.30;;;;;;4982333;28;20437;-80
2021/09/02 11:39:30;;;;;;;0.50;0.33;;;32.60;61.10;;;;;;4985171;28;20521;-83
2021/09/02 11:42:01;;;;;;;0.50;0.30;;;32.80;62.20;;;;;;4986573;28;20458;-84
2021/09/02 11:44:31;;;;;;;0.50;0.30;;;33.20;62.10;;;;;;4989568;28;20599;-84
2021/09/02 11:46:59;;;;;;;0.50;0.40;;;34.10;59.30;;;;;;4998711;28;20446;-81
2021/09/02 11:49:27;;;;;;;0.40;0.30;;;34.90;59.00;;;;;;4997475;28;20538;-82
2021/09/02 11:51:55;;;;;;;0.40;0.30;;;35.90;58.40;;;;;;4996757;28;20481;-83
2021/09/02 11:54:23;;;;;;;0.40;0.30;;;36.40;55.40;;;;;;4997352;28;20446;-82
2021/09/02 11:56:51;;;;;;;0.40;0.30;;;35.80;55.70;;;;;;4998991;28;20807;-84
2021/09/02 11:59:19;;;;;;;0.43;0.30;;;35.60;56.30;;;;;;5002507;28;20474;-85
2021/09/02 12:01:48;;;;;;;0.50;0.30;;;34.90;57.70;;;;;;5000233;28;20448;-83
2021/09/02 12:04:19;;;;;;;0.50;0.30;;;34.30;59.30;;;;;;5001000;28;20583;-84
2021/09/02 12:06:49;;;;;;;0.50;0.30;;;33.40;59.00;;;;;;5002462;28;20447;-83
2021/09/02 12:09:20;;;;;;;0.50;0.30;;;32.60;62.10;;;;;;5002678;28;20474;-83
2021/09/02 12:11:47;;;;;;;0.50;0.30;;;32.00;62.30;;;;;;5000644;28;20479;-83
2021/09/02 12:14:20;;;;;;;0.50;0.30;;;31.50;60.40;;;;;;5002153;28;20437;-83
2021/09/02 12:16:59;;;;;;;0.50;0.30;;;31.10;61.40;;;;;;5002848;28;21124;-83
2021/09/02 12:19:26;;;;;;;0.50;0.30;;;30.80;62.80;;;;;;5002829;28;20498;-83
2021/09/02 12:22:10;;;;;;;0.50;0.30;;;30.70;66.90;;;;;;4991367;28;20453;-81
2021/09/02 12:24:37;;;;;;;0.50;0.30;;;31.50;67.70;;;;;;5002824;28;20454;-83
2021/09/02 12:27:04;;;;;;;0.50;0.30;;;32.70;65.20;;;;;;5002715;28;20443;-83
2021/09/02 12:29:30;;;;;;;0.53;0.33;;;33.40;61.00;;;;;;5002855;28;20471;-83
2021/09/02 12:31:57;;;;;;;0.50;0.50;;;33.40;62.10;;;;;;5000884;28;20865;-82
2021/09/02 12:34:27;;;;;;;0.50;0.40;;;32.70;63.10;;;;;;5002008;28;20451;-83
2021/09/02 12:37:02;;;;;;;0.50;0.30;;;31.80;65.00;;;;;;5003077;28;20451;-83
2021/09/02 12:39:31;;;;;;;0.50;0.30;;;31.20;66.10;;;;;;5003383;28;20466;-84
2021/09/02 12:41:59;;;;;;;0.50;0.30;;;31.70;66.90;;;;;;4999785;28;20448;-83
2021/09/02 12:44:29;;;;;;;0.50;0.30;;;32.50;64.30;;;;;;5002826;28;20442;-82
2021/09/02 12:46:59;;;;;;;0.50;0.40;;;33.40;61.60;;;;;;5004007;28;20452;-82
2021/09/02 12:49:28;;;;;;;0.43;0.40;;;34.20;63.10;;;;;;5013265;28;20462;-83
2021/09/02 12:52:15;;;;;;;0.40;0.30;;;34.60;61.10;;;;;;5009236;28;20483;-83
2021/09/02 12:55:03;;;;;;;0.40;0.30;;;34.90;60.30;;;;;;5005116;28;20455;-84